Tuesday, January 17, 2017, 3:52 AM EST

KFYJ, West Point, Middle Peninsula Regional Airport

Location: Shacklefords, VA, United States Lat: 37.521
Local Time: 3:52 AM EST ( 8:52 GMT) Lon: -76.764
Time Zone: US/Eastern Elev: 22 ft

Show me the last for .
Show Decoded

2017-01-17 03:35 METAR KFYJ 170835Z AUTO 00000KT 10SM OVC006 06/05 A3028 RMK AO2 T00580045 =
2017-01-17 03:15 METAR KFYJ 170815Z AUTO 19003KT 7SM OVC006 06/04 A3029 RMK AO2 T00580043 =
2017-01-17 02:55 METAR KFYJ 170755Z AUTO 00000KT 7SM OVC008 06/04 A3029 RMK AO2 T00570041 =
2017-01-17 02:35 METAR KFYJ 170735Z AUTO 15003KT 10SM OVC008 06/04 A3029 RMK AO2 T00580040 =
2017-01-17 02:15 METAR KFYJ 170715Z AUTO 16003KT 10SM OVC010 06/04 A3029 RMK AO2 T00590038 =
2017-01-17 01:55 METAR KFYJ 170655Z AUTO 17003KT 10SM OVC012 06/04 A3030 RMK AO2 T00590035 =
2017-01-17 01:35 METAR KFYJ 170635Z AUTO 18003KT 10SM OVC012 06/03 A3030 RMK AO2 T00600033 =
2017-01-17 01:15 METAR KFYJ 170615Z AUTO 18004KT 10SM SCT009 OVC014 06/03 A3031 RMK AO2 T00590030
                 =
2017-01-17 00:55 METAR KFYJ 170555Z AUTO 16003KT 10SM OVC016 06/03 A3031 RMK AO2 T00590025 10061
                 20057 400700030 =
2017-01-17 00:35 METAR KFYJ 170535Z AUTO 16003KT 10SM OVC016 06/03 A3032 RMK AO2 T00580025 =
2017-01-17 00:15 METAR KFYJ 170515Z AUTO 00000KT 10SM OVC018 06/03 A3033 RMK AO2 T00580026 =
2017-01-16 23:55 METAR KFYJ 170455Z AUTO 00000KT 10SM OVC016 06/03 A3033 RMK AO2 T00580025 =
2017-01-16 23:35 METAR KFYJ 170435Z AUTO 00000KT 10SM BKN014 OVC019 06/02 A3034 RMK AO2 T00590024
                 =
2017-01-16 23:15 METAR KFYJ 170415Z AUTO 00000KT 10SM OVC016 06/02 A3035 RMK AO2 T00580022 =
2017-01-16 22:55 METAR KFYJ 170355Z AUTO 00000KT 10SM OVC016 06/02 A3036 RMK AO2 T00580022 =
2017-01-16 22:35 METAR KFYJ 170335Z AUTO 00000KT 10SM OVC016 06/02 A3036 RMK AO2 T00580022 =
2017-01-16 22:15 METAR KFYJ 170315Z AUTO 00000KT 10SM OVC020 06/02 A3037 RMK AO2 T00580020 =
2017-01-16 21:55 METAR KFYJ 170255Z AUTO 00000KT 10SM OVC020 06/02 A3038 RMK AO2 T00580020 =
2017-01-16 21:35 METAR KFYJ 170235Z AUTO 00000KT 10SM SCT016 OVC022 06/02 A3038 RMK AO2 T00580020
                 =
2017-01-16 21:15 METAR KFYJ 170215Z AUTO 00000KT 10SM BKN016 OVC024 06/02 A3039 RMK AO2 T00580022
                 =
2017-01-16 20:55 METAR KFYJ 170155Z AUTO 17004KT 10SM BKN024 OVC070 06/02 A3039 RMK AO2 T00580017
                 =
2017-01-16 20:35 METAR KFYJ 170135Z AUTO 15003KT 10SM SCT024 OVC070 06/01 A3039 RMK AO2 T00570014
                 =
2017-01-16 20:15 METAR KFYJ 170115Z AUTO 14004KT 10SM OVC070 06/02 A3038 RMK AO2 T00580015 =
2017-01-16 19:55 METAR KFYJ 170055Z AUTO 14005KT 10SM BKN024 OVC070 06/02 A3038 RMK AO2 T00580015
                 =
2017-01-16 19:35 METAR KFYJ 170035Z AUTO 14004KT 10SM OVC024 06/02 A3039 RMK AO2 T00600019 =
2017-01-16 19:15 METAR KFYJ 170015Z AUTO 15005KT 10SM OVC024 06/02 A3039 RMK AO2 T00610021 =
2017-01-16 18:55 METAR KFYJ 162355Z AUTO 15005KT 10SM OVC024 06/02 A3040 RMK AO2 T00610017 10070
                 20058 =
2017-01-16 18:35 METAR KFYJ 162335Z AUTO 13003KT 10SM OVC024 06/02 A3040 RMK AO2 T00610020 =
2017-01-16 18:15 METAR KFYJ 162315Z AUTO 00000KT 10SM OVC026 06/02 A3040 RMK AO2 T00610020 =
2017-01-16 17:55 METAR KFYJ 162255Z AUTO 00000KT 10SM OVC028 06/02 A3040 RMK AO2 T00610024 =
2017-01-16 17:35 METAR KFYJ 162235Z AUTO 13003KT 10SM OVC028 06/02 A3040 RMK AO2 T00630015 =
2017-01-16 17:15 METAR KFYJ 162215Z AUTO 13003KT 10SM OVC028 06/01 A3040 RMK AO2 T00640011 =
2017-01-16 16:55 METAR KFYJ 162155Z AUTO 14003KT 10SM OVC028 07/01 A3041 RMK AO2 T00650011 =
2017-01-16 16:35 METAR KFYJ 162135Z AUTO 00000KT 10SM OVC030 07/01 A3041 RMK AO2 T00660010 =
2017-01-16 16:15 METAR KFYJ 162115Z AUTO 13003KT 10SM OVC034 07/01 A3042 RMK AO2 T00680010 =
2017-01-16 15:55 METAR KFYJ 162055Z AUTO 12003KT 10SM OVC036 07/01 A3041 RMK AO2 T00680010 =
2017-01-16 15:35 METAR KFYJ 162035Z AUTO 14004KT 10SM OVC038 07/01 A3041 RMK AO2 T00680009 =
2017-01-16 15:15 METAR KFYJ 162015Z AUTO 15004KT 10SM SCT032 OVC038 07/01 A3041 RMK AO2 T00690008
                 =
2017-01-16 14:55 METAR KFYJ 161955Z AUTO 16004KT 10SM OVC034 07/01 A3041 RMK AO2 T00690009 =
2017-01-16 14:35 METAR KFYJ 161935Z AUTO 14004KT 10SM SCT021 OVC034 07/01 A3041 RMK AO2 T00660010
                 =
2017-01-16 14:15 METAR KFYJ 161915Z AUTO 17005KT 10SM OVC021 07/02 A3042 RMK AO2 T00650015 =
2017-01-16 13:55 METAR KFYJ 161855Z AUTO 18004KT 10SM OVC021 07/01 A3042 RMK AO2 T00650011 =
2017-01-16 13:35 METAR KFYJ 161835Z AUTO 19005KT 10SM OVC021 07/02 A3042 RMK AO2 T00650020 =
2017-01-16 13:15 METAR KFYJ 161815Z AUTO 19003KT 10SM SCT021 OVC039 06/02 A3043 RMK AO2 T00610020
                 =
2017-01-16 12:55 METAR KFYJ 161755Z AUTO 20004KT 10SM SCT021 OVC039 06/01 A3044 RMK AO2 T00600012
                 10060 20032 =
2017-01-16 12:35 METAR KFYJ 161735Z AUTO 00000KT 10SM BKN021 OVC039 06/01 A3045 RMK AO2 T00580010
                 =
2017-01-16 12:15 METAR KFYJ 161715Z AUTO 00000KT 10SM OVC023 06/00 A3047 RMK AO2 T00560003 =
2017-01-16 11:55 METAR KFYJ 161655Z AUTO 20003KT 10SM OVC025 06/01 A3048 RMK AO2 T00570006 =
2017-01-16 11:35 METAR KFYJ 161635Z AUTO 25003KT 10SM BKN025 BKN032 OVC043 06/02 A3049 RMK AO2
                 T00550021 =
2017-01-16 11:15 METAR KFYJ 161615Z AUTO 00000KT 10SM SCT030 SCT037 OVC043 05/02 A3050 RMK AO2
                 T00530021 =
2017-01-16 10:55 METAR KFYJ 161555Z AUTO 00000KT 10SM SCT039 OVC050 05/02 A3051 RMK AO2 T00510021
                 =
2017-01-16 10:35 METAR KFYJ 161535Z AUTO 00000KT 10SM SCT043 OVC050 05/02 A3051 RMK AO2 T00500019
                 =
2017-01-16 10:15 METAR KFYJ 161515Z AUTO 00000KT 10SM BKN043 OVC049 05/02 A3051 RMK AO2 T00470018
                 =
2017-01-16 09:55 METAR KFYJ 161455Z AUTO 00000KT 10SM SCT038 BKN044 OVC050 05/02 A3051 RMK AO2
                 T00470018 =
2017-01-16 09:35 METAR KFYJ 161435Z AUTO 00000KT 10SM OVC038 04/01 A3050 RMK AO2 T00430011 =
2017-01-16 09:15 METAR KFYJ 161415Z AUTO 00000KT 10SM BKN040 OVC047 04/02 A3050 RMK AO2 T00420016
                 =
2017-01-16 08:55 METAR KFYJ 161355Z AUTO 00000KT 10SM OVC048 04/02 A3050 RMK AO2 T00400021 =
2017-01-16 08:35 METAR KFYJ 161335Z AUTO 00000KT 10SM OVC046 04/02 A3049 RMK AO2 T00370023 =
2017-01-16 08:15 METAR KFYJ 161315Z AUTO 00000KT 10SM OVC044 03/02 A3049 RMK AO2 T00340023 =
2017-01-16 07:55 METAR KFYJ 161255Z AUTO 00000KT 10SM OVC046 04/02 A3049 RMK AO2 T00350023 =
2017-01-16 07:35 METAR KFYJ 161235Z AUTO 00000KT 10SM OVC046 03/02 A3047 RMK AO2 T00330020 =
2017-01-16 07:15 METAR KFYJ 161215Z AUTO 00000KT 10SM OVC046 04/02 A3047 RMK AO2 T00350017 =
2017-01-16 06:55 METAR KFYJ 161155Z AUTO 00000KT 10SM OVC046 03/01 A3047 RMK AO2 60004 70004
                 T00310013 10042 20030 =
2017-01-16 06:35 METAR KFYJ 161135Z AUTO 00000KT 10SM OVC046 03/02 A3047 RMK AO2 T00300015 =
2017-01-16 06:15 METAR KFYJ 161115Z AUTO 00000KT 10SM OVC046 03/02 A3047 RMK AO2 T00310016 =
2017-01-16 05:55 METAR KFYJ 161055Z AUTO 00000KT 10SM OVC048 03/02 A3046 RMK AO2 T00300015 =
2017-01-16 05:35 METAR KFYJ 161035Z AUTO 00000KT 10SM BKN048 BKN065 OVC095 03/02 A3046 RMK AO2
                 T00300015 =
2017-01-16 05:15 METAR KFYJ 161015Z AUTO 00000KT 10SM SCT046 BKN065 OVC095 03/02 A3046 RMK AO2
                 T00300015 =
2017-01-16 04:55 METAR KFYJ 160955Z AUTO 00000KT 10SM SCT037 BKN050 OVC070 03/01 A3046 RMK AO2
                 P0002 T00300014 =
2017-01-16 04:35 METAR KFYJ 160935Z AUTO 00000KT 10SM OVC060 03/01 A3046 RMK AO2 P0001 T00300011
                 =
2017-01-16 04:15 METAR KFYJ 160915Z AUTO 00000KT 10SM BKN060 OVC100 03/01 A3045 RMK AO2 T00320012
                 =
2017-01-16 03:55 METAR KFYJ 160855Z AUTO 00000KT 10SM BKN060 BKN070 OVC100 03/01 A3045 RMK AO2
                 P0001 60002 T00320008 =

Support USWX by starting your Amazon purchase here.